KTXK/TXK METAR and TAF weather

Enter ICAO airport designator
Station Type Date Time Source
KTXK METAR 2019/10/23 19:53 UTC NOAA

KTXK 231953Z 18010G18KT 10SM CLR 23/02 A3006 RMK AO2 SLP177 T02330022


Station Type Date Time Source
KTXK Decoded METAR 2019/10/23 19:53 UTC NOAA

TEXARKANA RGNL WEBB FIELD, AR, United States (KTXK) 33-27N 093-59W 111M
Oct 23, 2019 - 03:53 PM EDT / 2019.10.23 1953 UTC
Wind: from the S (180 degrees) at 12 MPH (10 KT) gusting to 21 MPH (18 KT):0
Visibility: 10 mile(s):0
Sky conditions: clear
Temperature: 73.9 F (23.3 C)
Dew Point: 36.0 F (2.2 C)
Relative Humidity: 25%
Pressure (altimeter): 30.06 in. Hg (1017 hPa)
ob: KTXK 231953Z 18010G18KT 10SM CLR 23/02 A3006 RMK AO2 SLP177 T02330022
cycle: 20

Station Type Date Time Source
KTXK TAF 2019/10/23 18:22 UTC NOAA

TAF KTXK 231720Z 2318/2418 18012G18KT P6SM SKC
FM240100 15005KT P6SM SCT250

Example: see airport list